createdAt,value
2018-12-12T00:01:55.402Z,1.00
2018-12-12T00:04:21.857Z,1.10
2018-12-12T00:06:48.322Z,1.00
2018-12-12T00:09:14.680Z,1.00
2018-12-12T00:11:41.032Z,1.00
2018-12-12T00:14:07.440Z,1.10
2018-12-12T00:16:33.836Z,1.00
2018-12-12T00:19:00.164Z,1.13
2018-12-12T00:21:26.485Z,1.20
2018-12-12T00:23:52.813Z,1.10
2018-12-12T00:26:19.200Z,1.00
2018-12-12T00:28:45.596Z,0.97
2018-12-12T00:31:11.999Z,1.10
2018-12-12T00:33:38.354Z,1.10
2018-12-12T00:36:04.668Z,1.10
2018-12-12T00:38:31.031Z,1.00
2018-12-12T00:40:57.375Z,1.03
2018-12-12T00:43:23.823Z,1.10
2018-12-12T00:45:50.122Z,1.10
2018-12-12T00:48:16.464Z,0.90
2018-12-12T00:50:42.789Z,1.00
2018-12-12T00:53:09.164Z,1.00
2018-12-12T00:55:35.492Z,1.00
2018-12-12T00:58:01.821Z,1.10
2018-12-12T01:00:28.407Z,0.97
2018-12-12T01:02:54.750Z,1.10
2018-12-12T01:05:21.098Z,1.20
2018-12-12T01:07:47.533Z,0.90
2018-12-12T01:10:13.870Z,1.00
2018-12-12T01:12:40.205Z,1.07
2018-12-12T01:15:06.537Z,1.00
2018-12-12T01:17:35.082Z,0.90
2018-12-12T01:20:01.519Z,1.00
2018-12-12T01:22:27.815Z,1.20
2018-12-12T01:24:54.153Z,1.20
2018-12-12T01:27:20.676Z,0.90
2018-12-12T01:29:47.065Z,1.03
2018-12-12T01:32:13.407Z,1.00
2018-12-12T01:34:39.777Z,0.90
2018-12-12T01:37:06.104Z,1.03
2018-12-12T01:39:32.435Z,0.80
2018-12-12T01:41:58.768Z,0.90
2018-12-12T01:44:25.099Z,1.10
2018-12-12T01:46:51.425Z,0.90
2018-12-12T01:49:17.826Z,1.10
2018-12-12T01:51:44.254Z,1.00
2018-12-12T01:54:10.596Z,0.97
2018-12-12T01:56:36.925Z,1.00
2018-12-12T01:59:03.255Z,1.00
2018-12-12T02:01:29.603Z,0.97
2018-12-12T02:03:56.002Z,0.80
2018-12-12T02:06:22.346Z,0.93
2018-12-12T02:08:48.697Z,0.90
2018-12-12T02:11:15.039Z,0.90
2018-12-12T02:13:41.427Z,0.90
2018-12-12T02:16:07.763Z,1.10
2018-12-12T02:18:34.093Z,0.93
2018-12-12T02:21:00.509Z,0.90
2018-12-12T02:23:26.875Z,1.00
2018-12-12T02:25:53.273Z,0.90
2018-12-12T02:28:19.591Z,0.80
2018-12-12T02:30:45.938Z,0.77
2018-12-12T02:33:12.273Z,0.90
2018-12-12T02:35:38.614Z,0.90
2018-12-12T02:38:05.001Z,0.90
2018-12-12T02:40:31.356Z,0.90
2018-12-12T02:42:57.737Z,1.10
2018-12-12T02:45:24.069Z,0.90
2018-12-12T02:47:50.466Z,0.80
2018-12-12T02:50:16.794Z,0.97
2018-12-12T02:52:43.134Z,1.13
2018-12-12T02:55:09.515Z,0.97
2018-12-12T02:57:35.863Z,1.00
2018-12-12T03:00:02.279Z,1.00
2018-12-12T03:02:29.569Z,0.87
2018-12-12T03:04:55.920Z,0.90
2018-12-12T03:07:22.331Z,1.00
2018-12-12T03:09:48.725Z,0.90
2018-12-12T03:12:15.051Z,1.00
2018-12-12T03:14:41.391Z,0.83
2018-12-12T03:17:07.732Z,1.10
2018-12-12T03:19:34.115Z,0.90
2018-12-12T03:22:00.493Z,1.00
2018-12-12T03:24:26.815Z,1.00
2018-12-12T03:26:53.149Z,0.93
2018-12-12T03:29:19.506Z,1.00
2018-12-12T03:31:45.872Z,1.03
2018-12-12T03:34:12.201Z,1.13
2018-12-12T03:36:38.538Z,1.10
2018-12-12T03:39:04.875Z,1.10
2018-12-12T03:41:31.245Z,1.20
2018-12-12T03:43:57.573Z,1.20
2018-12-12T03:46:23.970Z,1.03
2018-12-12T03:48:50.261Z,1.23
2018-12-12T03:51:16.615Z,1.30
2018-12-12T03:53:42.967Z,1.13
2018-12-12T03:56:09.298Z,1.10
2018-12-12T03:58:35.629Z,1.00
2018-12-12T04:01:01.972Z,1.10
2018-12-12T04:03:28.352Z,1.00
2018-12-12T04:05:54.650Z,0.90
2018-12-12T04:08:21.021Z,1.10
2018-12-12T04:10:47.355Z,1.10
2018-12-12T04:13:13.698Z,1.27
2018-12-12T04:15:40.035Z,0.97
2018-12-12T04:18:06.368Z,1.17
2018-12-12T04:20:32.696Z,1.00
2018-12-12T04:22:59.027Z,1.00
2018-12-12T04:25:25.419Z,1.17
2018-12-12T04:27:51.793Z,1.00
2018-12-12T04:30:18.183Z,1.20
2018-12-12T04:32:44.525Z,1.10
2018-12-12T04:35:10.845Z,1.00
2018-12-12T04:37:37.207Z,1.00
2018-12-12T04:40:03.616Z,1.03
2018-12-12T04:42:29.874Z,1.10
2018-12-12T04:44:56.215Z,1.00
2018-12-12T04:47:22.549Z,1.10
2018-12-12T04:49:49.163Z,1.03
2018-12-12T04:52:15.573Z,0.90
2018-12-12T04:54:41.861Z,1.10
2018-12-12T04:57:08.191Z,1.00
2018-12-12T04:59:34.569Z,1.03
2018-12-12T05:02:00.857Z,1.00
2018-12-12T05:04:27.273Z,1.10
2018-12-12T05:06:55.994Z,1.17
2018-12-12T05:09:19.955Z,1.00
2018-12-12T05:11:46.251Z,1.20
2018-12-12T05:14:12.588Z,1.07
2018-12-12T05:16:39.007Z,1.10
2018-12-12T05:19:05.331Z,1.27
2018-12-12T05:21:31.662Z,1.23
2018-12-12T05:23:58.006Z,1.10
2018-12-12T05:26:24.347Z,1.20
2018-12-12T05:28:50.692Z,1.20
2018-12-12T05:31:17.025Z,1.30
2018-12-12T05:33:43.365Z,1.20
2018-12-12T05:36:09.708Z,1.20
2018-12-12T05:38:36.031Z,1.30
2018-12-12T05:41:02.416Z,1.40
2018-12-12T05:43:28.749Z,1.30
2018-12-12T05:45:55.093Z,1.10
2018-12-12T05:48:21.475Z,1.40
2018-12-12T05:50:47.817Z,1.47
2018-12-12T05:53:14.240Z,1.50
2018-12-12T05:55:40.593Z,1.80
2018-12-12T05:58:06.983Z,1.40
2018-12-12T06:00:33.316Z,1.50
2018-12-12T06:02:59.642Z,1.77
2018-12-12T06:05:26.025Z,1.43
2018-12-12T06:07:52.448Z,1.40
2018-12-12T06:10:18.735Z,1.40
2018-12-12T06:12:45.114Z,1.37
2018-12-12T06:15:11.442Z,1.30
2018-12-12T06:17:37.777Z,1.40
2018-12-12T06:20:04.105Z,1.23
2018-12-12T06:22:30.454Z,1.30
2018-12-12T06:24:56.802Z,1.60
2018-12-12T06:27:23.167Z,1.43
2018-12-12T06:29:49.530Z,1.73
2018-12-12T06:32:15.874Z,1.30
2018-12-12T06:34:42.194Z,2.07
2018-12-12T06:37:08.530Z,1.40
2018-12-12T06:39:34.860Z,1.53
2018-12-12T06:42:05.359Z,1.83
2018-12-12T06:44:31.690Z,1.60
2018-12-12T06:46:58.027Z,1.50
2018-12-12T06:49:24.373Z,1.30
2018-12-12T06:51:50.714Z,1.47
2018-12-12T06:54:18.974Z,1.33
2018-12-12T06:56:45.316Z,1.57
2018-12-12T06:59:11.662Z,1.40
2018-12-12T07:01:38.052Z,1.60
2018-12-12T07:04:04.495Z,1.20
2018-12-12T07:06:30.901Z,1.20
2018-12-12T07:08:57.216Z,1.33
2018-12-12T07:11:23.617Z,1.30
2018-12-12T07:13:50.383Z,1.63
2018-12-12T07:16:16.706Z,1.40
2018-12-12T07:18:43.051Z,1.57
2018-12-12T07:21:09.381Z,1.10
2018-12-12T07:23:36.279Z,1.33
2018-12-12T07:26:03.658Z,1.10
2018-12-12T07:28:30.020Z,1.20
2018-12-12T07:30:56.371Z,1.30
2018-12-12T07:33:22.868Z,1.20
2018-12-12T07:35:49.569Z,1.30
2018-12-12T07:38:15.898Z,1.30
2018-12-12T07:40:42.277Z,1.37
2018-12-12T07:43:08.608Z,1.70
2018-12-12T07:45:35.079Z,2.23
2018-12-12T07:48:01.728Z,1.40
2018-12-12T07:50:27.816Z,1.40
2018-12-12T07:52:54.203Z,1.10
2018-12-12T07:55:20.583Z,1.50
2018-12-12T07:57:47.270Z,1.47
2018-12-12T08:00:13.773Z,1.80
2018-12-12T08:02:40.140Z,1.60
2018-12-12T08:05:06.507Z,1.50
2018-12-12T08:07:32.841Z,1.67
2018-12-12T08:09:59.325Z,1.50
2018-12-12T08:12:25.654Z,1.40
2018-12-12T08:14:52.065Z,1.60
2018-12-12T08:17:18.469Z,1.43
2018-12-12T08:19:45.112Z,1.53
2018-12-12T08:22:11.487Z,1.10
2018-12-12T08:24:37.846Z,1.53
2018-12-12T08:27:05.067Z,1.20
2018-12-12T08:29:31.533Z,1.40
2018-12-12T08:32:00.109Z,1.40
2018-12-12T08:34:26.467Z,1.40
2018-12-12T08:36:52.831Z,1.13
2018-12-12T08:39:19.206Z,1.43
2018-12-12T08:41:46.621Z,1.20
2018-12-12T08:44:12.948Z,1.10
2018-12-12T08:46:39.471Z,1.47
2018-12-12T08:49:05.863Z,1.43
2018-12-12T08:51:33.407Z,1.33
2018-12-12T08:53:59.847Z,1.30
2018-12-12T08:56:28.190Z,1.10
2018-12-12T08:58:54.622Z,1.30
2018-12-12T09:01:21.060Z,1.13
2018-12-12T09:03:47.896Z,1.40
2018-12-12T09:06:16.448Z,1.20
2018-12-12T09:08:42.947Z,1.00
2018-12-12T09:11:09.316Z,1.60
2018-12-12T09:13:35.663Z,1.27
2018-12-12T09:16:02.047Z,1.20
2018-12-12T09:18:28.455Z,1.70
2018-12-12T09:20:54.894Z,1.20
2018-12-12T09:23:21.253Z,1.37
2018-12-12T09:25:47.610Z,1.10
2018-12-12T09:28:13.988Z,1.20
2018-12-12T09:30:40.346Z,1.23
2018-12-12T09:33:06.694Z,1.10
2018-12-12T09:35:33.182Z,0.93
2018-12-12T09:37:59.526Z,1.00
2018-12-12T09:40:25.923Z,1.90
2018-12-12T09:42:52.260Z,1.13
2018-12-12T09:45:21.678Z,1.30
2018-12-12T09:47:45.005Z,1.20
2018-12-12T09:50:11.392Z,1.20
2018-12-12T09:52:37.820Z,1.30
2018-12-12T09:55:04.225Z,1.20
2018-12-12T09:57:30.620Z,1.40
2018-12-12T09:59:57.055Z,1.30
2018-12-12T10:02:23.390Z,1.30
2018-12-12T10:04:49.779Z,1.57
2018-12-12T10:07:16.120Z,1.17
2018-12-12T10:09:42.470Z,1.30
2018-12-12T10:12:08.962Z,1.30
2018-12-12T10:14:35.344Z,1.30
2018-12-12T10:17:01.729Z,1.37
2018-12-12T10:19:28.076Z,1.30
2018-12-12T10:21:54.510Z,1.37
2018-12-12T10:24:20.804Z,1.20
2018-12-12T10:26:47.164Z,1.60
2018-12-12T10:29:13.498Z,1.30
2018-12-12T10:31:40.026Z,1.30
2018-12-12T10:34:06.811Z,1.40
2018-12-12T10:36:33.406Z,1.13
2018-12-12T10:38:59.746Z,1.30
2018-12-12T10:41:26.381Z,1.20
2018-12-12T10:43:52.752Z,1.30
2018-12-12T10:46:19.145Z,1.20
2018-12-12T10:48:45.550Z,1.30
2018-12-12T10:51:11.894Z,1.20
2018-12-12T10:53:38.375Z,1.20
2018-12-12T10:56:04.879Z,1.23
2018-12-12T10:58:31.161Z,1.40
2018-12-12T11:00:57.623Z,1.30
2018-12-12T11:03:23.983Z,1.30
2018-12-12T11:05:50.331Z,1.00
2018-12-12T11:08:16.830Z,1.20
2018-12-12T11:10:43.238Z,1.17
2018-12-12T11:13:09.596Z,1.20
2018-12-12T11:15:35.969Z,1.37
2018-12-12T11:18:02.314Z,1.30
2018-12-12T11:20:28.708Z,1.20
2018-12-12T11:22:57.309Z,1.20
2018-12-12T11:25:23.707Z,1.30
2018-12-12T11:27:50.037Z,1.30
2018-12-12T11:30:16.368Z,1.33
2018-12-12T11:32:43.048Z,1.07
2018-12-12T11:35:09.390Z,1.27
2018-12-12T11:37:36.870Z,1.43
2018-12-12T11:40:03.292Z,1.13
2018-12-12T11:42:29.609Z,1.10
2018-12-12T11:44:55.988Z,1.23
2018-12-12T11:47:22.319Z,1.20
2018-12-12T11:49:48.662Z,1.17
2018-12-12T11:52:15.094Z,1.10
2018-12-12T11:54:41.436Z,1.37
2018-12-12T11:57:10.154Z,1.10
2018-12-12T11:59:36.497Z,1.23
2018-12-12T12:02:05.062Z,0.97
2018-12-12T12:04:31.470Z,0.90
2018-12-12T12:06:57.825Z,1.33
2018-12-12T12:09:24.169Z,1.60
2018-12-12T12:11:50.539Z,1.10
2018-12-12T12:14:16.896Z,1.17
2018-12-12T12:16:44.360Z,1.10
2018-12-12T12:19:10.705Z,1.37
2018-12-12T12:21:37.091Z,1.20
2018-12-12T12:24:03.463Z,1.10
2018-12-12T12:26:29.934Z,1.47
2018-12-12T12:28:56.276Z,1.00
2018-12-12T12:31:22.607Z,1.80
2018-12-12T12:33:48.997Z,1.10
2018-12-12T12:36:15.403Z,1.10
2018-12-12T12:38:41.900Z,1.33
2018-12-12T12:41:08.332Z,1.40
2018-12-12T12:43:34.854Z,1.40
2018-12-12T12:46:01.218Z,1.20
2018-12-12T12:48:27.621Z,1.13
2018-12-12T12:50:54.592Z,1.40
2018-12-12T12:53:21.005Z,1.20
2018-12-12T12:55:47.342Z,1.43
2018-12-12T12:58:13.705Z,1.40
2018-12-12T13:00:40.110Z,1.10
2018-12-12T13:03:06.456Z,1.20
2018-12-12T13:05:32.793Z,1.10
2018-12-12T13:07:59.165Z,1.20
2018-12-12T13:10:25.552Z,1.33
2018-12-12T13:12:51.977Z,1.30
2018-12-12T13:15:18.310Z,1.30
2018-12-12T13:17:45.939Z,1.27
2018-12-12T13:20:13.413Z,1.93
2018-12-12T13:22:39.838Z,1.37
2018-12-12T13:25:06.186Z,1.67
2018-12-12T13:27:32.597Z,1.27
2018-12-12T13:29:58.924Z,1.20
2018-12-12T13:32:25.278Z,1.20
2018-12-12T13:34:51.661Z,1.40
2018-12-12T13:37:18.441Z,1.27
2018-12-12T13:39:44.860Z,1.20
2018-12-12T13:42:11.400Z,1.20
2018-12-12T13:44:38.210Z,1.00
2018-12-12T13:47:04.563Z,1.20
2018-12-12T13:49:31.923Z,1.20
2018-12-12T13:51:59.334Z,1.40
2018-12-12T13:54:26.220Z,1.53
2018-12-12T13:56:52.565Z,1.50
2018-12-12T13:59:19.007Z,1.40
2018-12-12T14:01:45.389Z,1.40
2018-12-12T14:04:11.795Z,1.40
2018-12-12T14:06:38.131Z,1.40
2018-12-12T14:09:04.462Z,1.40
2018-12-12T14:11:30.906Z,1.70
2018-12-12T14:13:57.274Z,1.20
2018-12-12T14:16:23.741Z,1.60
2018-12-12T14:18:50.176Z,1.57
2018-12-12T14:21:16.686Z,1.40
2018-12-12T14:23:43.222Z,1.60
2018-12-12T14:26:09.788Z,1.30
2018-12-12T14:28:36.098Z,1.50
2018-12-12T14:31:02.484Z,1.20
2018-12-12T14:33:28.882Z,1.50
2018-12-12T14:36:00.930Z,1.33
2018-12-12T14:38:21.778Z,1.20
2018-12-12T14:40:48.222Z,1.20
2018-12-12T14:43:14.563Z,1.43
2018-12-12T14:45:40.943Z,1.30
2018-12-12T14:48:07.381Z,1.30
2018-12-12T14:50:33.721Z,1.30
2018-12-12T14:53:00.097Z,1.20
2018-12-12T14:55:26.456Z,1.40
2018-12-12T14:57:52.834Z,1.70
2018-12-12T15:00:19.419Z,1.63
2018-12-12T15:02:45.756Z,1.40
2018-12-12T15:05:12.197Z,1.30
2018-12-12T15:07:41.215Z,1.40
2018-12-12T15:10:07.574Z,1.40
2018-12-12T15:12:33.971Z,2.20
2018-12-12T15:15:00.676Z,1.40
2018-12-12T15:17:27.062Z,1.70
2018-12-12T15:19:53.518Z,1.80
2018-12-12T15:22:19.873Z,1.80
2018-12-12T15:24:46.263Z,1.37
2018-12-12T15:27:12.709Z,1.60
2018-12-12T15:29:39.095Z,1.87
2018-12-12T15:32:05.435Z,1.57
2018-12-12T15:34:31.820Z,1.50
2018-12-12T15:36:58.181Z,1.50
2018-12-12T15:39:24.674Z,1.73
2018-12-12T15:41:51.027Z,1.60
2018-12-12T15:44:17.359Z,1.67
2018-12-12T15:46:43.695Z,1.57
2018-12-12T15:49:10.015Z,1.60
2018-12-12T15:51:36.370Z,1.30
2018-12-12T15:54:02.760Z,1.90
2018-12-12T15:56:29.171Z,1.53
2018-12-12T15:58:55.781Z,1.43
2018-12-12T16:01:22.092Z,1.90
2018-12-12T16:03:48.441Z,1.50
2018-12-12T16:06:14.801Z,1.57
2018-12-12T16:08:41.293Z,1.90
2018-12-12T16:11:08.434Z,1.43
2018-12-12T16:13:33.999Z,1.50
2018-12-12T16:16:00.343Z,1.63
2018-12-12T16:18:26.779Z,1.40
2018-12-12T16:20:53.116Z,2.20
2018-12-12T16:23:19.459Z,1.93
2018-12-12T16:25:45.813Z,1.80
2018-12-12T16:28:12.221Z,1.73
2018-12-12T16:30:38.511Z,1.63
2018-12-12T16:33:04.901Z,2.10
2018-12-12T16:35:31.229Z,1.90
2018-12-12T16:37:57.630Z,1.93
2018-12-12T16:40:23.996Z,2.20
2018-12-12T16:42:50.341Z,1.87
2018-12-12T16:45:16.663Z,2.37
2018-12-12T16:47:43.213Z,2.27
2018-12-12T16:50:09.540Z,2.10
2018-12-12T16:52:35.931Z,2.30
2018-12-12T16:55:02.352Z,2.50
2018-12-12T16:57:28.700Z,2.70
2018-12-12T16:59:55.101Z,2.37
2018-12-12T17:02:21.448Z,2.90
2018-12-12T17:04:47.839Z,2.13
2018-12-12T17:07:14.438Z,2.40
2018-12-12T17:09:40.760Z,2.17
2018-12-12T17:12:07.143Z,1.90
2018-12-12T17:14:33.543Z,2.60
2018-12-12T17:17:00.031Z,2.30
2018-12-12T17:19:26.432Z,2.23
2018-12-12T17:21:52.778Z,1.80
2018-12-12T17:24:19.280Z,2.00
2018-12-12T17:26:45.655Z,1.90
2018-12-12T17:29:11.981Z,1.87
2018-12-12T17:31:38.438Z,1.70
2018-12-12T17:34:04.859Z,1.73
2018-12-12T17:36:31.239Z,2.00
2018-12-12T17:38:57.632Z,1.70
2018-12-12T17:41:24.175Z,1.50
2018-12-12T17:43:50.589Z,1.40
2018-12-12T17:46:17.031Z,1.70
2018-12-12T17:48:43.478Z,1.50
2018-12-12T17:51:09.997Z,1.97
2018-12-12T17:53:36.351Z,1.77
2018-12-12T17:56:02.782Z,1.73
2018-12-12T17:58:29.214Z,2.17
2018-12-12T18:00:55.669Z,2.03
2018-12-12T18:03:22.203Z,2.10
2018-12-12T18:05:48.869Z,2.67
2018-12-12T18:08:15.350Z,2.30
2018-12-12T18:10:41.758Z,1.93
2018-12-12T18:13:08.371Z,2.00
2018-12-12T18:15:34.867Z,2.00
2018-12-12T18:18:01.265Z,2.30
2018-12-12T18:20:27.994Z,2.10
2018-12-12T18:22:55.099Z,1.93
2018-12-12T18:25:21.671Z,2.10
2018-12-12T18:27:48.672Z,2.30
2018-12-12T18:30:15.502Z,2.70
2018-12-12T18:32:41.959Z,2.30
2018-12-12T18:35:08.487Z,2.67
2018-12-12T18:37:34.836Z,2.57
2018-12-12T18:40:01.208Z,2.93
2018-12-12T18:42:27.796Z,2.87
2018-12-12T18:44:54.129Z,3.30
2018-12-12T18:47:20.627Z,3.33
2018-12-12T18:49:47.029Z,2.90
2018-12-12T18:52:13.405Z,3.10
2018-12-12T18:54:39.829Z,3.27
2018-12-12T18:57:06.108Z,3.20
2018-12-12T18:59:32.589Z,2.87
2018-12-12T19:01:58.984Z,3.53
2018-12-12T19:04:25.275Z,3.40
2018-12-12T19:06:51.671Z,2.97
2018-12-12T19:09:18.030Z,3.70
2018-12-12T19:11:44.655Z,3.33
2018-12-12T19:14:10.983Z,2.90
2018-12-12T19:16:37.332Z,3.07
2018-12-12T19:19:03.709Z,3.30
2018-12-12T19:21:30.173Z,3.03
2018-12-12T19:23:56.617Z,2.90
2018-12-12T19:26:23.344Z,3.20
2018-12-12T19:28:49.370Z,3.13
2018-12-12T19:31:15.856Z,2.97
2018-12-12T19:33:42.234Z,3.00
2018-12-12T19:36:08.566Z,3.20
2018-12-12T19:38:34.951Z,2.90
2018-12-12T19:41:01.341Z,2.97
2018-12-12T19:43:27.700Z,3.30
2018-12-12T19:45:54.052Z,3.20
2018-12-12T19:48:20.381Z,3.13
2018-12-12T19:50:46.838Z,3.37
2018-12-12T19:53:13.161Z,3.13
2018-12-12T19:55:39.505Z,3.13
2018-12-12T19:58:05.839Z,2.90
2018-12-12T20:00:32.181Z,3.27
2018-12-12T20:02:58.527Z,3.90
2018-12-12T20:05:24.961Z,3.40
2018-12-12T20:07:51.275Z,2.90
2018-12-12T20:10:17.650Z,3.30
2018-12-12T20:12:44.009Z,3.40
2018-12-12T20:15:10.346Z,3.07
2018-12-12T20:17:36.723Z,2.80
2018-12-12T20:20:03.042Z,2.53
2018-12-12T20:22:29.394Z,3.00
2018-12-12T20:24:55.793Z,2.77
2018-12-12T20:27:22.135Z,3.00
2018-12-12T20:29:48.590Z,2.67
2018-12-12T20:32:14.892Z,2.80
2018-12-12T20:34:41.228Z,3.10
2018-12-12T20:37:07.748Z,3.20
2018-12-12T20:39:34.150Z,2.70
2018-12-12T20:42:00.478Z,2.90
2018-12-12T20:44:26.797Z,3.07
2018-12-12T20:46:53.128Z,2.80
2018-12-12T20:49:19.463Z,2.90
2018-12-12T20:51:45.808Z,2.60
2018-12-12T20:54:13.866Z,2.43
2018-12-12T20:56:38.667Z,3.33
2018-12-12T20:59:04.992Z,2.70
2018-12-12T21:01:31.331Z,3.03
2018-12-12T21:03:57.759Z,2.63
2018-12-12T21:06:24.094Z,3.20
2018-12-12T21:08:50.425Z,2.93
2018-12-12T21:11:16.799Z,2.70
2018-12-12T21:13:43.132Z,3.00
2018-12-12T21:16:09.512Z,2.93
2018-12-12T21:18:35.839Z,3.07
2018-12-12T21:21:02.171Z,3.37
2018-12-12T21:23:28.494Z,2.67
2018-12-12T21:25:54.888Z,3.33
2018-12-12T21:28:21.229Z,3.10
2018-12-12T21:30:47.574Z,2.70
2018-12-12T21:33:13.912Z,3.07
2018-12-12T21:35:40.231Z,3.07
2018-12-12T21:38:06.620Z,3.10
2018-12-12T21:40:32.972Z,3.20
2018-12-12T21:42:59.305Z,3.17
2018-12-12T21:45:25.684Z,3.13
2018-12-12T21:47:52.051Z,3.00
2018-12-12T21:50:18.378Z,3.13
2018-12-12T21:52:44.759Z,2.50
2018-12-12T21:55:11.060Z,3.63
2018-12-12T21:57:37.393Z,3.60
2018-12-12T22:00:03.741Z,3.40
2018-12-12T22:02:30.075Z,3.40
2018-12-12T22:04:56.406Z,3.20
2018-12-12T22:07:22.793Z,3.13
2018-12-12T22:09:49.164Z,3.50
2018-12-12T22:12:15.503Z,3.27
2018-12-12T22:14:41.889Z,3.00
2018-12-12T22:17:08.225Z,3.40
2018-12-12T22:19:34.613Z,3.33
2018-12-12T22:22:00.987Z,2.63
2018-12-12T22:24:27.311Z,3.30
2018-12-12T22:26:53.669Z,3.53
2018-12-12T22:29:20.012Z,3.33
2018-12-12T22:31:46.367Z,3.23
2018-12-12T22:34:12.697Z,3.20
2018-12-12T22:36:39.027Z,3.00
2018-12-12T22:39:05.412Z,3.60
2018-12-12T22:41:31.773Z,3.13
2018-12-12T22:43:58.087Z,3.00
2018-12-12T22:46:24.424Z,3.47
2018-12-12T22:48:50.755Z,3.00
2018-12-12T22:51:17.089Z,3.10
2018-12-12T22:53:43.488Z,3.57
2018-12-12T22:56:09.818Z,3.13
2018-12-12T22:58:36.145Z,3.30
2018-12-12T23:01:02.491Z,3.10
2018-12-12T23:03:28.823Z,2.90
2018-12-12T23:05:55.179Z,3.73
2018-12-12T23:08:21.510Z,3.20
2018-12-12T23:10:47.851Z,2.87
2018-12-12T23:13:14.181Z,3.00
2018-12-12T23:15:40.578Z,3.20
2018-12-12T23:18:06.927Z,3.43
2018-12-12T23:20:33.239Z,3.20
2018-12-12T23:22:59.599Z,3.47
2018-12-12T23:25:25.991Z,3.50
2018-12-12T23:27:52.319Z,3.37
2018-12-12T23:30:18.718Z,3.70
2018-12-12T23:32:44.986Z,3.30
2018-12-12T23:35:11.370Z,3.57
2018-12-12T23:37:37.695Z,3.20
2018-12-12T23:40:04.153Z,3.27
2018-12-12T23:42:30.535Z,3.17
2018-12-12T23:44:56.919Z,2.97
2018-12-12T23:47:23.250Z,3.33
2018-12-12T23:49:49.577Z,3.20
2018-12-12T23:52:15.911Z,3.07
2018-12-12T23:54:42.242Z,3.10
2018-12-12T23:57:08.623Z,3.10
2018-12-12T23:59:34.954Z,3.27
